sensor_id;sensor_type;location;lat;lon;timestamp;P1;durP1;ratioP1;P2;durP2;ratioP2
46777;SDS011;32536;47.128;8.746;2023-12-29T00:00:21;1.67;;;1.20;;
46777;SDS011;32536;47.128;8.746;2023-12-29T00:02:47;2.75;;;1.42;;
46777;SDS011;32536;47.128;8.746;2023-12-29T00:05:14;3.53;;;1.38;;
46777;SDS011;32536;47.128;8.746;2023-12-29T00:07:41;3.15;;;1.60;;
46777;SDS011;32536;47.128;8.746;2023-12-29T00:10:08;3.60;;;2.35;;
46777;SDS011;32536;47.128;8.746;2023-12-29T00:12:35;2.85;;;1.52;;
46777;SDS011;32536;47.128;8.746;2023-12-29T00:15:01;5.07;;;1.95;;
46777;SDS011;32536;47.128;8.746;2023-12-29T00:17:29;4.65;;;2.03;;
46777;SDS011;32536;47.128;8.746;2023-12-29T00:19:55;3.88;;;2.85;;
46777;SDS011;32536;47.128;8.746;2023-12-29T00:22:22;3.22;;;1.65;;
46777;SDS011;32536;47.128;8.746;2023-12-29T00:24:50;3.65;;;1.90;;
46777;SDS011;32536;47.128;8.746;2023-12-29T00:27:17;4.20;;;2.25;;
46777;SDS011;32536;47.128;8.746;2023-12-29T00:29:53;3.10;;;2.05;;
46777;SDS011;32536;47.128;8.746;2023-12-29T00:32:20;4.43;;;2.25;;
46777;SDS011;32536;47.128;8.746;2023-12-29T00:34:47;2.58;;;1.52;;
46777;SDS011;32536;47.128;8.746;2023-12-29T00:37:14;3.10;;;1.83;;
46777;SDS011;32536;47.128;8.746;2023-12-29T00:39:40;2.75;;;1.77;;
46777;SDS011;32536;47.128;8.746;2023-12-29T00:42:07;2.30;;;1.17;;
46777;SDS011;32536;47.128;8.746;2023-12-29T00:44:34;2.25;;;1.85;;
46777;SDS011;32536;47.128;8.746;2023-12-29T00:47:01;1.88;;;1.42;;
46777;SDS011;32536;47.128;8.746;2023-12-29T00:49:28;1.85;;;1.33;;
46777;SDS011;32536;47.128;8.746;2023-12-29T00:51:54;2.90;;;2.38;;
46777;SDS011;32536;47.128;8.746;2023-12-29T00:54:21;1.77;;;1.13;;
46777;SDS011;32536;47.128;8.746;2023-12-29T00:56:49;2.22;;;1.33;;
46777;SDS011;32536;47.128;8.746;2023-12-29T00:59:17;2.15;;;0.98;;
46777;SDS011;32536;47.128;8.746;2023-12-29T01:01:45;1.85;;;1.63;;
46777;SDS011;32536;47.128;8.746;2023-12-29T01:04:12;2.05;;;0.93;;
46777;SDS011;32536;47.128;8.746;2023-12-29T01:06:39;1.85;;;1.23;;
46777;SDS011;32536;47.128;8.746;2023-12-29T01:09:06;3.85;;;2.10;;
46777;SDS011;32536;47.128;8.746;2023-12-29T01:11:34;2.25;;;1.63;;
46777;SDS011;32536;47.128;8.746;2023-12-29T01:14:01;2.05;;;1.55;;
46777;SDS011;32536;47.128;8.746;2023-12-29T01:16:28;2.00;;;1.25;;
46777;SDS011;32536;47.128;8.746;2023-12-29T01:18:54;2.33;;;1.33;;
46777;SDS011;32536;47.128;8.746;2023-12-29T01:21:21;4.28;;;2.08;;
46777;SDS011;32536;47.128;8.746;2023-12-29T01:23:48;2.60;;;1.30;;
46777;SDS011;32536;47.128;8.746;2023-12-29T01:26:15;2.20;;;1.35;;
46777;SDS011;32536;47.128;8.746;2023-12-29T01:28:41;1.85;;;1.00;;
46777;SDS011;32536;47.128;8.746;2023-12-29T01:31:08;2.28;;;1.38;;
46777;SDS011;32536;47.128;8.746;2023-12-29T01:33:36;2.40;;;1.50;;
46777;SDS011;32536;47.128;8.746;2023-12-29T01:36:03;1.67;;;1.00;;
46777;SDS011;32536;47.128;8.746;2023-12-29T01:38:30;1.83;;;1.30;;
46777;SDS011;32536;47.128;8.746;2023-12-29T01:40:57;2.03;;;1.38;;
46777;SDS011;32536;47.128;8.746;2023-12-29T01:43:24;1.58;;;1.10;;
46777;SDS011;32536;47.128;8.746;2023-12-29T01:45:51;1.75;;;1.23;;
46777;SDS011;32536;47.128;8.746;2023-12-29T01:48:17;2.03;;;1.58;;
46777;SDS011;32536;47.128;8.746;2023-12-29T01:50:44;3.10;;;2.08;;
46777;SDS011;32536;47.128;8.746;2023-12-29T01:53:11;2.95;;;1.88;;
46777;SDS011;32536;47.128;8.746;2023-12-29T01:55:38;2.10;;;1.27;;
46777;SDS011;32536;47.128;8.746;2023-12-29T01:58:05;1.75;;;1.13;;
46777;SDS011;32536;47.128;8.746;2023-12-29T02:00:33;1.63;;;1.05;;
46777;SDS011;32536;47.128;8.746;2023-12-29T02:03:00;2.17;;;1.10;;
46777;SDS011;32536;47.128;8.746;2023-12-29T02:05:27;3.33;;;1.65;;
46777;SDS011;32536;47.128;8.746;2023-12-29T02:07:55;2.28;;;1.17;;
46777;SDS011;32536;47.128;8.746;2023-12-29T02:10:22;2.80;;;1.42;;
46777;SDS011;32536;47.128;8.746;2023-12-29T02:12:50;2.35;;;1.52;;
46777;SDS011;32536;47.128;8.746;2023-12-29T02:15:23;1.30;;;0.95;;
46777;SDS011;32536;47.128;8.746;2023-12-29T02:17:51;2.90;;;1.75;;
46777;SDS011;32536;47.128;8.746;2023-12-29T02:20:26;2.25;;;1.13;;
46777;SDS011;32536;47.128;8.746;2023-12-29T02:22:53;2.90;;;1.33;;
46777;SDS011;32536;47.128;8.746;2023-12-29T02:25:20;2.08;;;1.60;;
46777;SDS011;32536;47.128;8.746;2023-12-29T02:33:32;1.88;;;1.17;;
46777;SDS011;32536;47.128;8.746;2023-12-29T02:36:06;2.55;;;1.40;;
46777;SDS011;32536;47.128;8.746;2023-12-29T02:38:33;3.00;;;1.77;;
46777;SDS011;32536;47.128;8.746;2023-12-29T02:41:00;1.52;;;1.00;;
46777;SDS011;32536;47.128;8.746;2023-12-29T02:43:27;1.52;;;1.25;;
46777;SDS011;32536;47.128;8.746;2023-12-29T02:45:56;1.73;;;1.13;;
46777;SDS011;32536;47.128;8.746;2023-12-29T02:48:23;2.28;;;1.38;;
46777;SDS011;32536;47.128;8.746;2023-12-29T02:50:49;3.20;;;2.53;;
46777;SDS011;32536;47.128;8.746;2023-12-29T02:53:16;1.33;;;0.85;;
46777;SDS011;32536;47.128;8.746;2023-12-29T02:55:43;2.05;;;1.23;;
46777;SDS011;32536;47.128;8.746;2023-12-29T02:58:10;2.50;;;1.40;;
46777;SDS011;32536;47.128;8.746;2023-12-29T03:00:36;1.85;;;1.50;;
46777;SDS011;32536;47.128;8.746;2023-12-29T03:03:03;2.03;;;1.25;;
46777;SDS011;32536;47.128;8.746;2023-12-29T03:05:30;2.47;;;1.50;;
46777;SDS011;32536;47.128;8.746;2023-12-29T03:07:57;1.52;;;1.25;;
46777;SDS011;32536;47.128;8.746;2023-12-29T03:10:24;1.85;;;1.60;;
46777;SDS011;32536;47.128;8.746;2023-12-29T03:12:51;1.80;;;1.25;;
46777;SDS011;32536;47.128;8.746;2023-12-29T03:15:17;1.58;;;0.85;;
46777;SDS011;32536;47.128;8.746;2023-12-29T03:17:44;1.75;;;1.23;;
46777;SDS011;32536;47.128;8.746;2023-12-29T03:20:11;2.00;;;1.27;;
46777;SDS011;32536;47.128;8.746;2023-12-29T03:22:38;1.52;;;1.20;;
46777;SDS011;32536;47.128;8.746;2023-12-29T03:25:05;1.35;;;1.05;;
46777;SDS011;32536;47.128;8.746;2023-12-29T03:27:32;1.55;;;0.85;;
46777;SDS011;32536;47.128;8.746;2023-12-29T03:30:02;2.05;;;1.55;;
46777;SDS011;32536;47.128;8.746;2023-12-29T03:32:29;1.50;;;1.27;;
46777;SDS011;32536;47.128;8.746;2023-12-29T03:34:56;1.38;;;1.08;;
46777;SDS011;32536;47.128;8.746;2023-12-29T03:37:23;1.50;;;0.77;;
46777;SDS011;32536;47.128;8.746;2023-12-29T03:39:49;1.25;;;1.05;;
46777;SDS011;32536;47.128;8.746;2023-12-29T03:42:16;1.20;;;0.98;;
46777;SDS011;32536;47.128;8.746;2023-12-29T03:44:43;2.85;;;1.67;;
46777;SDS011;32536;47.128;8.746;2023-12-29T03:47:10;2.28;;;1.05;;
46777;SDS011;32536;47.128;8.746;2023-12-29T03:49:36;1.65;;;1.02;;
46777;SDS011;32536;47.128;8.746;2023-12-29T03:52:03;2.58;;;1.35;;
46777;SDS011;32536;47.128;8.746;2023-12-29T03:54:30;1.75;;;0.90;;
46777;SDS011;32536;47.128;8.746;2023-12-29T03:56:57;1.65;;;1.48;;
46777;SDS011;32536;47.128;8.746;2023-12-29T03:59:23;1.50;;;1.25;;
46777;SDS011;32536;47.128;8.746;2023-12-29T04:01:50;1.90;;;1.00;;
46777;SDS011;32536;47.128;8.746;2023-12-29T04:04:17;1.88;;;1.35;;
46777;SDS011;32536;47.128;8.746;2023-12-29T04:06:44;1.30;;;0.88;;
46777;SDS011;32536;47.128;8.746;2023-12-29T04:09:10;1.60;;;1.17;;
46777;SDS011;32536;47.128;8.746;2023-12-29T04:11:37;1.90;;;1.25;;
46777;SDS011;32536;47.128;8.746;2023-12-29T04:14:04;1.83;;;1.38;;
46777;SDS011;32536;47.128;8.746;2023-12-29T04:16:31;1.85;;;1.40;;
46777;SDS011;32536;47.128;8.746;2023-12-29T04:18:57;1.48;;;1.13;;
46777;SDS011;32536;47.128;8.746;2023-12-29T04:21:24;3.95;;;1.63;;
46777;SDS011;32536;47.128;8.746;2023-12-29T04:23:51;1.95;;;1.35;;
46777;SDS011;32536;47.128;8.746;2023-12-29T04:26:17;1.80;;;1.38;;
46777;SDS011;32536;47.128;8.746;2023-12-29T04:28:44;2.42;;;1.85;;
46777;SDS011;32536;47.128;8.746;2023-12-29T04:31:11;3.10;;;1.38;;
46777;SDS011;32536;47.128;8.746;2023-12-29T04:33:38;2.08;;;1.23;;
46777;SDS011;32536;47.128;8.746;2023-12-29T04:36:05;2.75;;;1.75;;
46777;SDS011;32536;47.128;8.746;2023-12-29T04:38:32;2.70;;;1.50;;
46777;SDS011;32536;47.128;8.746;2023-12-29T04:40:59;1.63;;;1.30;;
46777;SDS011;32536;47.128;8.746;2023-12-29T04:43:25;1.67;;;1.02;;
46777;SDS011;32536;47.128;8.746;2023-12-29T04:45:52;3.72;;;2.65;;
46777;SDS011;32536;47.128;8.746;2023-12-29T04:48:19;3.05;;;1.92;;
46777;SDS011;32536;47.128;8.746;2023-12-29T04:50:46;2.45;;;1.48;;
46777;SDS011;32536;47.128;8.746;2023-12-29T04:53:12;2.42;;;1.60;;
46777;SDS011;32536;47.128;8.746;2023-12-29T04:55:39;2.40;;;1.42;;
46777;SDS011;32536;47.128;8.746;2023-12-29T04:58:06;2.03;;;1.27;;
46777;SDS011;32536;47.128;8.746;2023-12-29T05:00:32;2.80;;;1.58;;
46777;SDS011;32536;47.128;8.746;2023-12-29T05:02:59;2.75;;;1.77;;
46777;SDS011;32536;47.128;8.746;2023-12-29T05:05:26;2.95;;;2.47;;
46777;SDS011;32536;47.128;8.746;2023-12-29T05:07:53;3.53;;;2.05;;
46777;SDS011;32536;47.128;8.746;2023-12-29T05:10:19;3.33;;;2.13;;
46777;SDS011;32536;47.128;8.746;2023-12-29T05:12:46;3.38;;;2.08;;
46777;SDS011;32536;47.128;8.746;2023-12-29T05:15:13;4.25;;;2.45;;
46777;SDS011;32536;47.128;8.746;2023-12-29T05:17:40;3.92;;;2.05;;
46777;SDS011;32536;47.128;8.746;2023-12-29T05:20:07;3.38;;;3.03;;
46777;SDS011;32536;47.128;8.746;2023-12-29T05:22:34;2.63;;;1.65;;
46777;SDS011;32536;47.128;8.746;2023-12-29T05:25:01;2.17;;;1.10;;
46777;SDS011;32536;47.128;8.746;2023-12-29T05:27:30;2.00;;;1.23;;
46777;SDS011;32536;47.128;8.746;2023-12-29T05:30:10;2.03;;;1.50;;
46777;SDS011;32536;47.128;8.746;2023-12-29T05:32:37;2.20;;;1.42;;
46777;SDS011;32536;47.128;8.746;2023-12-29T05:35:04;1.92;;;1.00;;
46777;SDS011;32536;47.128;8.746;2023-12-29T05:37:32;2.30;;;1.10;;
46777;SDS011;32536;47.128;8.746;2023-12-29T05:39:58;1.77;;;1.45;;
46777;SDS011;32536;47.128;8.746;2023-12-29T05:42:25;2.55;;;1.52;;
46777;SDS011;32536;47.128;8.746;2023-12-29T05:44:52;2.85;;;1.63;;
46777;SDS011;32536;47.128;8.746;2023-12-29T05:47:19;2.28;;;1.33;;
46777;SDS011;32536;47.128;8.746;2023-12-29T05:49:45;2.22;;;1.30;;
46777;SDS011;32536;47.128;8.746;2023-12-29T05:52:12;2.40;;;1.15;;
46777;SDS011;32536;47.128;8.746;2023-12-29T05:54:39;1.70;;;1.52;;
46777;SDS011;32536;47.128;8.746;2023-12-29T05:57:06;1.95;;;1.08;;
46777;SDS011;32536;47.128;8.746;2023-12-29T05:59:33;2.25;;;1.27;;
46777;SDS011;32536;47.128;8.746;2023-12-29T06:01:59;1.95;;;1.23;;
46777;SDS011;32536;47.128;8.746;2023-12-29T06:04:26;1.35;;;1.08;;
46777;SDS011;32536;47.128;8.746;2023-12-29T06:06:53;1.60;;;1.33;;
46777;SDS011;32536;47.128;8.746;2023-12-29T06:09:20;2.05;;;1.10;;
46777;SDS011;32536;47.128;8.746;2023-12-29T06:11:46;1.88;;;1.30;;
46777;SDS011;32536;47.128;8.746;2023-12-29T06:14:13;1.80;;;1.10;;
46777;SDS011;32536;47.128;8.746;2023-12-29T06:16:40;1.42;;;1.02;;
46777;SDS011;32536;47.128;8.746;2023-12-29T06:19:07;1.27;;;0.77;;
46777;SDS011;32536;47.128;8.746;2023-12-29T06:21:41;2.20;;;1.05;;
46777;SDS011;32536;47.128;8.746;2023-12-29T06:24:09;3.45;;;1.52;;
46777;SDS011;32536;47.128;8.746;2023-12-29T06:26:39;2.63;;;1.40;;
46777;SDS011;32536;47.128;8.746;2023-12-29T06:29:09;3.55;;;1.20;;
46777;SDS011;32536;47.128;8.746;2023-12-29T06:31:39;1.63;;;1.00;;
46777;SDS011;32536;47.128;8.746;2023-12-29T06:34:07;1.10;;;0.85;;
46777;SDS011;32536;47.128;8.746;2023-12-29T06:36:34;1.05;;;0.75;;
46777;SDS011;32536;47.128;8.746;2023-12-29T06:39:01;1.60;;;1.23;;
46777;SDS011;32536;47.128;8.746;2023-12-29T06:41:28;2.15;;;1.15;;
46777;SDS011;32536;47.128;8.746;2023-12-29T06:43:54;4.68;;;2.45;;
46777;SDS011;32536;47.128;8.746;2023-12-29T06:46:21;2.90;;;1.60;;
46777;SDS011;32536;47.128;8.746;2023-12-29T06:48:48;2.92;;;1.70;;
46777;SDS011;32536;47.128;8.746;2023-12-29T06:51:16;2.17;;;1.15;;
46777;SDS011;32536;47.128;8.746;2023-12-29T06:53:44;2.70;;;1.38;;
46777;SDS011;32536;47.128;8.746;2023-12-29T06:56:15;3.35;;;2.17;;
46777;SDS011;32536;47.128;8.746;2023-12-29T06:58:43;2.22;;;1.30;;
46777;SDS011;32536;47.128;8.746;2023-12-29T07:01:11;2.35;;;1.27;;
46777;SDS011;32536;47.128;8.746;2023-12-29T07:03:38;2.42;;;1.27;;
46777;SDS011;32536;47.128;8.746;2023-12-29T07:06:05;2.65;;;1.13;;
46777;SDS011;32536;47.128;8.746;2023-12-29T07:08:32;1.70;;;1.15;;
46777;SDS011;32536;47.128;8.746;2023-12-29T07:10:59;2.17;;;1.10;;
46777;SDS011;32536;47.128;8.746;2023-12-29T07:13:26;1.63;;;1.20;;
46777;SDS011;32536;47.128;8.746;2023-12-29T07:15:53;2.75;;;1.50;;
46777;SDS011;32536;47.128;8.746;2023-12-29T07:18:20;2.92;;;2.47;;
46777;SDS011;32536;47.128;8.746;2023-12-29T07:20:47;2.00;;;1.33;;
46777;SDS011;32536;47.128;8.746;2023-12-29T07:23:13;1.83;;;0.95;;
46777;SDS011;32536;47.128;8.746;2023-12-29T07:25:40;1.83;;;1.10;;
46777;SDS011;32536;47.128;8.746;2023-12-29T07:28:07;1.52;;;1.00;;
46777;SDS011;32536;47.128;8.746;2023-12-29T07:30:34;1.77;;;1.42;;
46777;SDS011;32536;47.128;8.746;2023-12-29T07:33:00;1.73;;;1.00;;
46777;SDS011;32536;47.128;8.746;2023-12-29T07:35:28;1.70;;;1.30;;
46777;SDS011;32536;47.128;8.746;2023-12-29T07:37:55;1.50;;;0.95;;
46777;SDS011;32536;47.128;8.746;2023-12-29T07:40:22;1.40;;;0.93;;
46777;SDS011;32536;47.128;8.746;2023-12-29T07:42:49;1.23;;;1.02;;
46777;SDS011;32536;47.128;8.746;2023-12-29T07:45:16;1.50;;;0.98;;
46777;SDS011;32536;47.128;8.746;2023-12-29T07:47:43;1.52;;;1.13;;
46777;SDS011;32536;47.128;8.746;2023-12-29T07:50:10;2.08;;;1.40;;
46777;SDS011;32536;47.128;8.746;2023-12-29T07:52:37;1.42;;;0.80;;
46777;SDS011;32536;47.128;8.746;2023-12-29T07:55:04;1.85;;;1.20;;
46777;SDS011;32536;47.128;8.746;2023-12-29T07:57:31;2.15;;;1.48;;
46777;SDS011;32536;47.128;8.746;2023-12-29T07:59:58;2.03;;;1.20;;
46777;SDS011;32536;47.128;8.746;2023-12-29T08:02:43;1.45;;;1.15;;
46777;SDS011;32536;47.128;8.746;2023-12-29T08:05:10;1.85;;;1.05;;
46777;SDS011;32536;47.128;8.746;2023-12-29T08:07:37;2.78;;;2.08;;
46777;SDS011;32536;47.128;8.746;2023-12-29T08:10:05;1.50;;;0.93;;
46777;SDS011;32536;47.128;8.746;2023-12-29T08:12:33;3.00;;;1.48;;
46777;SDS011;32536;47.128;8.746;2023-12-29T08:15:01;1.95;;;1.02;;
46777;SDS011;32536;47.128;8.746;2023-12-29T08:17:29;3.25;;;1.08;;
46777;SDS011;32536;47.128;8.746;2023-12-29T08:22:42;2.40;;;1.45;;
46777;SDS011;32536;47.128;8.746;2023-12-29T08:25:09;2.72;;;2.00;;
46777;SDS011;32536;47.128;8.746;2023-12-29T08:27:35;1.88;;;1.10;;
46777;SDS011;32536;47.128;8.746;2023-12-29T08:30:21;3.33;;;1.50;;
46777;SDS011;32536;47.128;8.746;2023-12-29T08:32:48;2.67;;;1.83;;
46777;SDS011;32536;47.128;8.746;2023-12-29T08:35:15;2.38;;;1.17;;
46777;SDS011;32536;47.128;8.746;2023-12-29T08:37:42;2.38;;;1.27;;
46777;SDS011;32536;47.128;8.746;2023-12-29T08:40:09;2.30;;;1.30;;
46777;SDS011;32536;47.128;8.746;2023-12-29T08:42:36;3.58;;;1.60;;
46777;SDS011;32536;47.128;8.746;2023-12-29T08:45:03;1.67;;;0.95;;
46777;SDS011;32536;47.128;8.746;2023-12-29T08:47:30;3.33;;;1.83;;
46777;SDS011;32536;47.128;8.746;2023-12-29T08:49:57;2.88;;;1.15;;
46777;SDS011;32536;47.128;8.746;2023-12-29T08:52:24;3.53;;;2.90;;
46777;SDS011;32536;47.128;8.746;2023-12-29T08:54:50;2.70;;;1.52;;
46777;SDS011;32536;47.128;8.746;2023-12-29T08:57:17;2.53;;;1.58;;
46777;SDS011;32536;47.128;8.746;2023-12-29T08:59:44;5.00;;;3.28;;
46777;SDS011;32536;47.128;8.746;2023-12-29T09:02:11;3.97;;;1.70;;
46777;SDS011;32536;47.128;8.746;2023-12-29T09:04:37;3.78;;;2.63;;
46777;SDS011;32536;47.128;8.746;2023-12-29T09:07:04;2.08;;;1.30;;
46777;SDS011;32536;47.128;8.746;2023-12-29T09:09:31;1.92;;;1.48;;
46777;SDS011;32536;47.128;8.746;2023-12-29T09:11:58;2.38;;;1.33;;
46777;SDS011;32536;47.128;8.746;2023-12-29T09:14:25;2.17;;;1.23;;
46777;SDS011;32536;47.128;8.746;2023-12-29T09:16:51;3.28;;;1.77;;
46777;SDS011;32536;47.128;8.746;2023-12-29T09:19:18;2.78;;;1.40;;
46777;SDS011;32536;47.128;8.746;2023-12-29T09:21:45;2.15;;;1.35;;
46777;SDS011;32536;47.128;8.746;2023-12-29T09:24:12;2.67;;;1.23;;
46777;SDS011;32536;47.128;8.746;2023-12-29T09:26:38;2.67;;;1.10;;
46777;SDS011;32536;47.128;8.746;2023-12-29T09:29:05;3.22;;;2.83;;
46777;SDS011;32536;47.128;8.746;2023-12-29T09:31:32;1.67;;;1.40;;
46777;SDS011;32536;47.128;8.746;2023-12-29T09:33:59;2.50;;;1.40;;
46777;SDS011;32536;47.128;8.746;2023-12-29T09:36:26;1.77;;;1.27;;
46777;SDS011;32536;47.128;8.746;2023-12-29T09:38:53;1.95;;;1.30;;
46777;SDS011;32536;47.128;8.746;2023-12-29T09:41:20;2.67;;;2.40;;
46777;SDS011;32536;47.128;8.746;2023-12-29T09:43:50;1.52;;;1.08;;
46777;SDS011;32536;47.128;8.746;2023-12-29T09:46:18;2.40;;;1.23;;
46777;SDS011;32536;47.128;8.746;2023-12-29T09:48:45;2.50;;;1.45;;
46777;SDS011;32536;47.128;8.746;2023-12-29T09:51:16;4.60;;;2.03;;
46777;SDS011;32536;47.128;8.746;2023-12-29T09:53:48;5.55;;;3.17;;
46777;SDS011;32536;47.128;8.746;2023-12-29T09:56:17;3.97;;;2.20;;
46777;SDS011;32536;47.128;8.746;2023-12-29T09:58:46;2.72;;;1.33;;
46777;SDS011;32536;47.128;8.746;2023-12-29T10:01:14;3.30;;;1.95;;
46777;SDS011;32536;47.128;8.746;2023-12-29T10:03:47;2.97;;;1.88;;
46777;SDS011;32536;47.128;8.746;2023-12-29T10:06:19;2.92;;;1.90;;
46777;SDS011;32536;47.128;8.746;2023-12-29T10:08:50;2.25;;;1.27;;
46777;SDS011;32536;47.128;8.746;2023-12-29T10:11:18;1.83;;;0.98;;
46777;SDS011;32536;47.128;8.746;2023-12-29T10:13:48;2.10;;;1.17;;
46777;SDS011;32536;47.128;8.746;2023-12-29T10:19:27;5.03;;;2.35;;
46777;SDS011;32536;47.128;8.746;2023-12-29T10:24:49;4.75;;;2.50;;
46777;SDS011;32536;47.128;8.746;2023-12-29T10:27:17;4.18;;;1.88;;
46777;SDS011;32536;47.128;8.746;2023-12-29T10:29:44;3.72;;;2.40;;
46777;SDS011;32536;47.128;8.746;2023-12-29T10:32:11;3.55;;;2.10;;
46777;SDS011;32536;47.128;8.746;2023-12-29T10:34:37;4.40;;;2.15;;
46777;SDS011;32536;47.128;8.746;2023-12-29T10:37:04;4.22;;;2.03;;
46777;SDS011;32536;47.128;8.746;2023-12-29T10:39:35;5.07;;;2.95;;
46777;SDS011;32536;47.128;8.746;2023-12-29T10:42:02;3.78;;;1.95;;
46777;SDS011;32536;47.128;8.746;2023-12-29T10:44:33;3.00;;;1.63;;
46777;SDS011;32536;47.128;8.746;2023-12-29T10:47:07;3.33;;;1.65;;
46777;SDS011;32536;47.128;8.746;2023-12-29T10:49:39;2.50;;;1.30;;
46777;SDS011;32536;47.128;8.746;2023-12-29T10:52:13;2.55;;;1.63;;
46777;SDS011;32536;47.128;8.746;2023-12-29T10:54:41;2.00;;;1.33;;
46777;SDS011;32536;47.128;8.746;2023-12-29T10:57:12;1.75;;;1.30;;
46777;SDS011;32536;47.128;8.746;2023-12-29T10:59:39;1.42;;;1.02;;
46777;SDS011;32536;47.128;8.746;2023-12-29T11:02:06;1.55;;;0.93;;
46777;SDS011;32536;47.128;8.746;2023-12-29T11:04:36;1.50;;;1.40;;
46777;SDS011;32536;47.128;8.746;2023-12-29T11:07:03;2.55;;;1.13;;
46777;SDS011;32536;47.128;8.746;2023-12-29T11:09:30;1.83;;;1.13;;
46777;SDS011;32536;47.128;8.746;2023-12-29T11:12:00;1.92;;;1.33;;
46777;SDS011;32536;47.128;8.746;2023-12-29T11:14:29;1.77;;;1.08;;
46777;SDS011;32536;47.128;8.746;2023-12-29T11:16:58;1.48;;;1.25;;
46777;SDS011;32536;47.128;8.746;2023-12-29T11:19:26;1.60;;;1.13;;
46777;SDS011;32536;47.128;8.746;2023-12-29T11:21:56;2.83;;;1.27;;
46777;SDS011;32536;47.128;8.746;2023-12-29T11:24:23;2.13;;;1.65;;
46777;SDS011;32536;47.128;8.746;2023-12-29T11:26:51;1.95;;;1.40;;
46777;SDS011;32536;47.128;8.746;2023-12-29T11:29:19;1.33;;;1.00;;
46777;SDS011;32536;47.128;8.746;2023-12-29T11:31:46;1.48;;;1.08;;
46777;SDS011;32536;47.128;8.746;2023-12-29T11:34:23;1.52;;;1.00;;
46777;SDS011;32536;47.128;8.746;2023-12-29T11:37:11;2.17;;;1.42;;
46777;SDS011;32536;47.128;8.746;2023-12-29T11:43:14;1.45;;;1.02;;
46777;SDS011;32536;47.128;8.746;2023-12-29T11:45:43;1.25;;;0.80;;
46777;SDS011;32536;47.128;8.746;2023-12-29T11:48:10;1.73;;;1.02;;
46777;SDS011;32536;47.128;8.746;2023-12-29T11:50:39;1.67;;;0.88;;
46777;SDS011;32536;47.128;8.746;2023-12-29T11:53:07;2.80;;;1.27;;
46777;SDS011;32536;47.128;8.746;2023-12-29T11:55:38;2.78;;;1.10;;
46777;SDS011;32536;47.128;8.746;2023-12-29T11:58:24;1.83;;;0.98;;
46777;SDS011;32536;47.128;8.746;2023-12-29T12:00:54;2.10;;;1.02;;
46777;SDS011;32536;47.128;8.746;2023-12-29T12:03:26;1.60;;;1.00;;
46777;SDS011;32536;47.128;8.746;2023-12-29T12:05:54;1.80;;;1.20;;
46777;SDS011;32536;47.128;8.746;2023-12-29T12:08:27;1.13;;;0.70;;
46777;SDS011;32536;47.128;8.746;2023-12-29T12:11:41;1.17;;;1.02;;
46777;SDS011;32536;47.128;8.746;2023-12-29T12:13:55;1.27;;;1.02;;
46777;SDS011;32536;47.128;8.746;2023-12-29T12:19:15;1.40;;;0.93;;
46777;SDS011;32536;47.128;8.746;2023-12-29T12:21:46;1.67;;;1.13;;
46777;SDS011;32536;47.128;8.746;2023-12-29T12:24:18;2.33;;;1.23;;
46777;SDS011;32536;47.128;8.746;2023-12-29T12:26:45;2.03;;;0.90;;
46777;SDS011;32536;47.128;8.746;2023-12-29T12:29:13;2.55;;;0.82;;
46777;SDS011;32536;47.128;8.746;2023-12-29T12:34:22;1.77;;;1.20;;
46777;SDS011;32536;47.128;8.746;2023-12-29T12:36:50;1.40;;;0.80;;
46777;SDS011;32536;47.128;8.746;2023-12-29T12:39:18;1.50;;;0.85;;
46777;SDS011;32536;47.128;8.746;2023-12-29T12:41:45;2.03;;;1.05;;
46777;SDS011;32536;47.128;8.746;2023-12-29T12:44:13;1.35;;;1.00;;
46777;SDS011;32536;47.128;8.746;2023-12-29T12:46:41;2.08;;;1.63;;
46777;SDS011;32536;47.128;8.746;2023-12-29T12:49:22;2.65;;;1.10;;
46777;SDS011;32536;47.128;8.746;2023-12-29T12:51:49;2.17;;;1.40;;
46777;SDS011;32536;47.128;8.746;2023-12-29T12:54:17;1.20;;;0.80;;
46777;SDS011;32536;47.128;8.746;2023-12-29T12:56:46;2.05;;;1.02;;
46777;SDS011;32536;47.128;8.746;2023-12-29T12:59:13;1.45;;;0.88;;
46777;SDS011;32536;47.128;8.746;2023-12-29T13:01:42;2.65;;;1.58;;
46777;SDS011;32536;47.128;8.746;2023-12-29T13:04:10;2.55;;;1.08;;
46777;SDS011;32536;47.128;8.746;2023-12-29T13:06:39;1.90;;;1.02;;
46777;SDS011;32536;47.128;8.746;2023-12-29T13:09:07;1.52;;;1.13;;
46777;SDS011;32536;47.128;8.746;2023-12-29T13:11:37;1.33;;;1.10;;
46777;SDS011;32536;47.128;8.746;2023-12-29T13:14:06;1.40;;;1.23;;
46777;SDS011;32536;47.128;8.746;2023-12-29T13:19:17;1.55;;;1.02;;
46777;SDS011;32536;47.128;8.746;2023-12-29T13:21:48;1.40;;;0.95;;
46777;SDS011;32536;47.128;8.746;2023-12-29T13:24:24;1.38;;;0.82;;
46777;SDS011;32536;47.128;8.746;2023-12-29T13:26:54;1.92;;;0.90;;
46777;SDS011;32536;47.128;8.746;2023-12-29T13:29:28;2.90;;;1.17;;
46777;SDS011;32536;47.128;8.746;2023-12-29T13:31:58;1.42;;;0.85;;
46777;SDS011;32536;47.128;8.746;2023-12-29T13:43:07;1.45;;;1.35;;
46777;SDS011;32536;47.128;8.746;2023-12-29T13:45:36;1.23;;;0.82;;
46777;SDS011;32536;47.128;8.746;2023-12-29T13:48:06;1.35;;;1.08;;
46777;SDS011;32536;47.128;8.746;2023-12-29T13:50:34;1.20;;;0.80;;
46777;SDS011;32536;47.128;8.746;2023-12-29T13:53:01;1.20;;;0.68;;
46777;SDS011;32536;47.128;8.746;2023-12-29T13:55:28;1.45;;;0.98;;
46777;SDS011;32536;47.128;8.746;2023-12-29T13:57:55;1.60;;;1.23;;
46777;SDS011;32536;47.128;8.746;2023-12-29T14:00:22;1.65;;;1.00;;
46777;SDS011;32536;47.128;8.746;2023-12-29T14:05:31;1.75;;;0.98;;
46777;SDS011;32536;47.128;8.746;2023-12-29T14:08:25;1.20;;;0.77;;
46777;SDS011;32536;47.128;8.746;2023-12-29T14:10:56;1.50;;;1.38;;
46777;SDS011;32536;47.128;8.746;2023-12-29T14:13:23;1.20;;;0.85;;
46777;SDS011;32536;47.128;8.746;2023-12-29T14:15:51;1.00;;;0.77;;
46777;SDS011;32536;47.128;8.746;2023-12-29T14:20:48;1.08;;;0.98;;
46777;SDS011;32536;47.128;8.746;2023-12-29T14:23:17;0.82;;;0.63;;
46777;SDS011;32536;47.128;8.746;2023-12-29T14:25:45;1.00;;;0.82;;
46777;SDS011;32536;47.128;8.746;2023-12-29T14:28:16;1.30;;;1.20;;
46777;SDS011;32536;47.128;8.746;2023-12-29T14:30:45;1.10;;;0.73;;
46777;SDS011;32536;47.128;8.746;2023-12-29T14:33:12;1.17;;;0.93;;
46777;SDS011;32536;47.128;8.746;2023-12-29T14:35:39;1.25;;;1.05;;
46777;SDS011;32536;47.128;8.746;2023-12-29T14:38:06;1.23;;;1.00;;
46777;SDS011;32536;47.128;8.746;2023-12-29T14:40:33;0.88;;;0.80;;
46777;SDS011;32536;47.128;8.746;2023-12-29T14:43:03;1.10;;;0.82;;
46777;SDS011;32536;47.128;8.746;2023-12-29T14:45:30;1.27;;;0.88;;
46777;SDS011;32536;47.128;8.746;2023-12-29T14:47:58;1.67;;;1.45;;
46777;SDS011;32536;47.128;8.746;2023-12-29T14:50:26;1.25;;;1.10;;
46777;SDS011;32536;47.128;8.746;2023-12-29T14:52:53;0.82;;;0.75;;
46777;SDS011;32536;47.128;8.746;2023-12-29T14:55:19;1.15;;;0.90;;
46777;SDS011;32536;47.128;8.746;2023-12-29T14:57:47;0.85;;;0.70;;
46777;SDS011;32536;47.128;8.746;2023-12-29T15:00:14;1.15;;;0.70;;
46777;SDS011;32536;47.128;8.746;2023-12-29T15:02:42;1.08;;;0.98;;
46777;SDS011;32536;47.128;8.746;2023-12-29T15:05:09;1.05;;;0.85;;
46777;SDS011;32536;47.128;8.746;2023-12-29T15:07:36;1.42;;;1.10;;
46777;SDS011;32536;47.128;8.746;2023-12-29T15:10:02;1.20;;;0.80;;
46777;SDS011;32536;47.128;8.746;2023-12-29T15:12:30;1.13;;;0.85;;
46777;SDS011;32536;47.128;8.746;2023-12-29T15:14:56;1.15;;;0.70;;
46777;SDS011;32536;47.128;8.746;2023-12-29T15:17:23;1.45;;;0.93;;
46777;SDS011;32536;47.128;8.746;2023-12-29T15:19:50;1.17;;;1.05;;
46777;SDS011;32536;47.128;8.746;2023-12-29T15:22:17;1.17;;;1.08;;
46777;SDS011;32536;47.128;8.746;2023-12-29T15:24:44;1.55;;;1.27;;
46777;SDS011;32536;47.128;8.746;2023-12-29T15:27:11;1.20;;;1.08;;
46777;SDS011;32536;47.128;8.746;2023-12-29T15:29:38;1.83;;;1.27;;
46777;SDS011;32536;47.128;8.746;2023-12-29T15:32:05;1.50;;;0.82;;